Time;durP1;ratioP1;P1;durP2;ratioP2;P2;SDS_P1;SDS_P2;PMS_P1;PMS_P2;Temp;Humidity;BMP_temperature;BMP_pressure;BME280_temperature;BME280_humidity;BME280_pressure;Samples;Min_cycle;Max_cycle;Signal;HPM_P1;HPM_P2
2022/06/26 00:02:10;;;;;;;8.20;7.40;;;22.10;70.90;;;;;;2329447;57;21577;-76
2022/06/26 00:04:37;;;;;;;8.43;7.62;;;22.10;70.80;;;;;;2330020;57;21149;-76
2022/06/26 00:07:05;;;;;;;10.63;7.30;;;22.00;71.00;;;;;;2328627;57;21103;-76
2022/06/26 00:09:33;;;;;;;10.70;7.97;;;22.00;71.10;;;;;;2337425;54;21179;-78
2022/06/26 00:12:00;;;;;;;12.48;8.30;;;22.00;71.20;;;;;;2330429;57;21051;-76
2022/06/26 00:14:28;;;;;;;9.27;8.32;;;22.00;71.20;;;;;;2332082;54;21627;-76
2022/06/26 00:16:55;;;;;;;8.05;6.22;;;22.00;71.20;;;;;;2330879;57;21079;-77
2022/06/26 00:19:23;;;;;;;6.80;6.20;;;21.90;70.90;;;;;;2330573;57;21059;-78
2022/06/26 00:21:51;;;;;;;10.55;8.00;;;21.80;71.00;;;;;;2330284;57;21071;-78
2022/06/26 00:24:19;;;;;;;8.50;7.60;;;21.80;71.10;;;;;;2330928;57;21427;-78
2022/06/26 00:26:46;;;;;;;8.80;7.05;;;21.80;71.00;;;;;;2334555;54;21043;-78
2022/06/26 00:29:14;;;;;;;9.30;7.40;;;21.80;71.20;;;;;;2331005;57;21051;-78
2022/06/26 00:31:41;;;;;;;8.20;7.40;;;21.80;71.40;;;;;;2329867;57;21063;-77
2022/06/26 00:34:08;;;;;;;10.25;8.50;;;21.80;71.50;;;;;;2330821;57;21044;-79
2022/06/26 00:36:36;;;;;;;10.80;9.02;;;21.70;71.40;;;;;;2372753;54;21063;-79
2022/06/26 00:39:04;;;;;;;10.18;8.95;;;21.70;71.40;;;;;;2331053;57;21055;-78
2022/06/26 00:41:31;;;;;;;10.82;9.30;;;21.70;71.60;;;;;;2329921;57;21078;-76
2022/06/26 00:43:59;;;;;;;8.43;7.30;;;21.60;71.60;;;;;;2334959;54;21071;-77
2022/06/26 00:46:26;;;;;;;8.55;7.75;;;21.50;71.60;;;;;;2330242;57;21075;-78
2022/06/26 00:48:54;;;;;;;8.57;7.75;;;21.50;72.30;;;;;;2382487;54;22185;-79
2022/06/26 00:51:22;;;;;;;9.88;8.73;;;21.40;71.80;;;;;;2331452;57;21058;-78
2022/06/26 00:53:50;;;;;;;11.15;9.32;;;21.30;71.80;;;;;;2330745;55;21067;-75
2022/06/26 00:56:18;;;;;;;9.32;8.43;;;21.30;72.10;;;;;;2330843;57;21102;-78
2022/06/26 00:58:46;;;;;;;10.88;9.07;;;21.20;72.10;;;;;;2329907;57;21154;-78
2022/06/26 01:01:13;;;;;;;12.52;8.75;;;21.20;72.20;;;;;;2338793;54;21117;-79
2022/06/26 01:03:41;;;;;;;11.82;8.90;;;21.20;72.30;;;;;;2330722;57;21492;-76
2022/06/26 01:06:09;;;;;;;12.20;9.48;;;21.10;72.40;;;;;;2334416;54;21079;-76
2022/06/26 01:08:37;;;;;;;8.63;7.72;;;21.10;72.90;;;;;;2328407;57;21138;-77
2022/06/26 01:11:17;;;;;;;9.50;7.85;;;21.10;73.20;;;;;;2330379;57;21673;-78
2022/06/26 01:13:46;;;;;;;9.18;8.27;;;21.10;73.50;;;;;;2330167;57;21135;-78
2022/06/26 01:16:15;;;;;;;8.95;7.75;;;21.10;73.20;;;;;;2334777;54;21059;-79
2022/06/26 01:18:43;;;;;;;8.65;7.20;;;21.10;73.10;;;;;;2333027;54;21066;-77
2022/06/26 01:21:11;;;;;;;10.43;7.80;;;21.10;73.20;;;;;;2385521;54;21542;-78
2022/06/26 01:23:39;;;;;;;9.18;6.87;;;21.10;73.20;;;;;;2331976;57;21059;-78
2022/06/26 01:26:07;;;;;;;9.75;8.05;;;21.10;73.30;;;;;;2330515;57;21647;-78
2022/06/26 01:28:34;;;;;;;11.52;8.00;;;21.20;73.30;;;;;;2351607;54;21159;-76
2022/06/26 01:31:02;;;;;;;10.65;8.48;;;21.20;73.30;;;;;;2330673;55;21048;-78
2022/06/26 01:33:30;;;;;;;9.60;8.50;;;21.20;73.40;;;;;;2330336;55;21196;-79
2022/06/26 01:35:57;;;;;;;7.97;7.20;;;21.10;73.30;;;;;;2329762;57;21063;-76
2022/06/26 01:38:25;;;;;;;10.50;9.43;;;21.20;73.60;;;;;;2352727;54;21055;-76
2022/06/26 01:40:55;;;;;;;16.60;10.13;;;21.20;73.50;;;;;;2331273;57;21579;-78
2022/06/26 01:43:24;;;;;;;11.88;9.77;;;21.20;73.80;;;;;;2331152;57;21110;-77
2022/06/26 01:45:54;;;;;;;10.70;7.78;;;21.10;73.90;;;;;;2330199;57;21610;-78
2022/06/26 01:48:24;;;;;;;10.75;7.95;;;21.10;74.00;;;;;;2329659;57;21708;-79
2022/06/26 01:50:52;;;;;;;9.38;8.48;;;21.10;74.00;;;;;;2331563;57;21087;-76
2022/06/26 01:53:20;;;;;;;8.65;7.85;;;21.10;74.20;;;;;;2334689;54;21708;-77
2022/06/26 01:55:48;;;;;;;8.82;6.78;;;21.10;74.30;;;;;;2330536;57;21063;-76
2022/06/26 01:58:16;;;;;;;9.25;8.35;;;21.20;74.30;;;;;;2335465;54;22269;-78
2022/06/26 02:00:46;;;;;;;9.48;7.32;;;21.20;75.10;;;;;;2330811;57;21059;-78
2022/06/26 02:03:16;;;;;;;10.73;8.10;;;21.20;74.20;;;;;;2330380;57;21118;-78
2022/06/26 02:05:44;;;;;;;9.55;7.82;;;21.30;74.30;;;;;;2329823;57;21044;-76
2022/06/26 02:08:12;;;;;;;9.52;8.27;;;21.30;74.30;;;;;;2330237;57;21555;-75
2022/06/26 02:13:37;;;;;;;10.25;9.20;;;21.30;74.60;;;;;;2330278;54;21609;-76
2022/06/26 02:16:08;;;;;;;11.25;10.02;;;21.30;74.50;;;;;;2330474;57;21047;-77
2022/06/26 02:18:36;;;;;;;10.25;9.15;;;21.30;74.60;;;;;;2329794;57;21574;-77
2022/06/26 02:21:07;;;;;;;9.90;8.90;;;21.30;74.60;;;;;;2335107;54;21071;-77
2022/06/26 02:23:35;;;;;;;9.50;8.55;;;21.40;74.70;;;;;;2341533;54;21589;-77
2022/06/26 02:26:04;;;;;;;15.88;10.48;;;21.40;74.60;;;;;;2330281;57;21114;-78
2022/06/26 02:28:32;;;;;;;12.02;10.13;;;21.40;74.70;;;;;;2331530;57;21123;-78
2022/06/26 02:31:00;;;;;;;11.75;9.40;;;21.40;74.70;;;;;;2331008;57;21058;-77
2022/06/26 02:33:28;;;;;;;11.57;10.10;;;21.40;74.60;;;;;;2331387;57;21055;-78
2022/06/26 02:35:55;;;;;;;10.13;8.93;;;21.40;74.50;;;;;;2329874;57;21114;-79
2022/06/26 02:38:23;;;;;;;11.15;10.00;;;21.40;74.50;;;;;;2331202;57;21042;-78
2022/06/26 02:40:52;;;;;;;11.20;10.10;;;21.40;74.50;;;;;;2330943;57;21127;-77
2022/06/26 02:43:23;;;;;;;13.77;11.02;;;21.40;74.60;;;;;;2330893;57;21059;-76
2022/06/26 02:45:52;;;;;;;14.98;11.15;;;21.40;74.70;;;;;;2329258;57;21078;-78
2022/06/26 02:50:54;;;;;;;11.67;10.53;;;21.50;74.70;;;;;;2337547;57;27836;-79
2022/06/26 02:53:22;;;;;;;13.27;10.38;;;21.20;77.00;;;;;;2348248;57;21108;-78
2022/06/26 02:55:49;;;;;;;12.15;9.68;;;21.40;77.10;;;;;;2347631;57;21620;-79
2022/06/26 02:58:17;;;;;;;10.25;9.25;;;21.50;75.50;;;;;;2358488;53;21061;-77
2022/06/26 03:00:44;;;;;;;18.20;10.35;;;21.60;75.10;;;;;;2346904;57;21069;-79
2022/06/26 03:03:12;;;;;;;11.23;10.05;;;21.60;74.70;;;;;;2344560;55;21093;-77
2022/06/26 03:05:39;;;;;;;11.05;9.68;;;21.70;74.50;;;;;;2346658;57;21117;-79
2022/06/26 03:08:07;;;;;;;12.35;9.50;;;21.70;74.30;;;;;;2345538;57;21105;-77
2022/06/26 03:10:35;;;;;;;14.40;9.88;;;21.70;74.10;;;;;;2346714;57;21057;-77
2022/06/26 03:13:02;;;;;;;12.55;9.70;;;21.60;74.00;;;;;;2346473;57;21074;-78
2022/06/26 03:18:06;;;;;;;18.63;11.77;;;21.70;74.10;;;;;;2336630;57;27819;-77
2022/06/26 03:20:33;;;;;;;17.30;10.90;;;21.40;76.70;;;;;;2346371;54;21089;-79
2022/06/26 03:23:01;;;;;;;12.93;9.52;;;21.60;75.80;;;;;;2346346;57;21042;-78
2022/06/26 03:25:29;;;;;;;12.13;9.13;;;21.70;75.20;;;;;;2349294;53;21093;-78
2022/06/26 03:27:57;;;;;;;14.52;10.27;;;21.80;74.80;;;;;;2423476;53;21094;-78
2022/06/26 03:30:24;;;;;;;15.77;10.98;;;21.80;74.60;;;;;;2347490;53;21164;-78
2022/06/26 03:32:52;;;;;;;17.02;10.57;;;21.80;74.60;;;;;;2346167;57;21046;-76
2022/06/26 03:35:19;;;;;;;22.37;12.40;;;21.80;74.50;;;;;;2345444;57;21113;-75
2022/06/26 03:37:47;;;;;;;18.55;10.90;;;21.80;74.60;;;;;;2361410;53;21066;-79
2022/06/26 03:40:15;;;;;;;25.10;12.57;;;21.90;74.60;;;;;;2346682;55;21160;-77
2022/06/26 03:42:42;;;;;;;21.37;11.48;;;21.90;74.60;;;;;;2346386;57;21141;-80
2022/06/26 03:45:11;;;;;;;19.58;11.32;;;21.90;74.60;;;;;;2370074;53;21054;-78
2022/06/26 03:47:38;;;;;;;17.23;10.77;;;21.90;74.60;;;;;;2420179;53;21050;-79
2022/06/26 03:50:08;;;;;;;14.68;9.77;;;21.90;74.70;;;;;;2373401;53;21216;-79
2022/06/26 03:52:36;;;;;;;14.13;10.00;;;21.90;74.80;;;;;;2460811;53;21030;-79
2022/06/26 03:55:05;;;;;;;15.23;11.05;;;21.90;74.90;;;;;;2350372;53;21548;-76
2022/06/26 03:57:32;;;;;;;19.58;11.25;;;21.90;74.90;;;;;;2357881;53;21601;-77
2022/06/26 04:00:00;;;;;;;19.27;13.20;;;22.00;75.10;;;;;;2346112;57;21125;-76
2022/06/26 04:02:27;;;;;;;17.48;10.88;;;22.00;75.40;;;;;;2401773;53;21050;-77
2022/06/26 04:04:55;;;;;;;13.20;10.80;;;22.00;75.30;;;;;;2345693;55;21180;-77
2022/06/26 04:07:23;;;;;;;15.60;10.80;;;22.00;75.30;;;;;;2370335;53;21062;-76
2022/06/26 04:09:50;;;;;;;15.80;11.65;;;22.10;75.30;;;;;;2597859;52;69615;-82
2022/06/26 04:12:17;;;;;;;13.30;10.98;;;22.10;75.30;;;;;;2633550;52;21026;-82
2022/06/26 04:14:46;;;;;;;14.32;11.15;;;22.10;75.30;;;;;;2379411;56;21578;-81
2022/06/26 04:17:14;;;;;;;13.60;10.68;;;22.10;75.20;;;;;;2379301;56;21087;-82
2022/06/26 04:19:41;;;;;;;18.98;11.90;;;22.10;75.30;;;;;;2630966;52;21079;-82
2022/06/26 04:22:09;;;;;;;14.52;11.27;;;22.20;75.40;;;;;;2377937;56;21035;-82
2022/06/26 04:24:36;;;;;;;15.05;11.50;;;22.20;75.40;;;;;;2631350;52;21819;-81
2022/06/26 04:27:04;;;;;;;13.40;10.73;;;22.20;75.40;;;;;;2376796;56;21043;-81
2022/06/26 04:29:32;;;;;;;13.07;10.38;;;22.20;75.20;;;;;;2377175;56;21534;-82
2022/06/26 04:31:59;;;;;;;15.13;10.23;;;22.20;75.00;;;;;;2377414;56;21030;-82
2022/06/26 04:34:27;;;;;;;11.57;10.48;;;22.20;75.00;;;;;;2375210;56;21313;-82
2022/06/26 04:36:54;;;;;;;11.90;10.43;;;22.20;75.20;;;;;;2630283;52;21586;-82
2022/06/26 04:39:22;;;;;;;13.18;11.18;;;22.30;75.40;;;;;;2630585;52;21713;-82
2022/06/26 04:41:49;;;;;;;12.77;11.27;;;22.30;75.50;;;;;;2376777;56;21535;-82
2022/06/26 04:44:18;;;;;;;15.27;12.05;;;22.30;75.50;;;;;;2376159;56;21038;-81
2022/06/26 04:46:46;;;;;;;11.75;10.63;;;22.30;75.50;;;;;;2376752;56;21091;-82
2022/06/26 04:49:14;;;;;;;14.45;11.18;;;22.30;75.40;;;;;;2630488;52;21027;-82
2022/06/26 04:54:16;;;;;;;12.73;11.53;;;22.30;75.50;;;;;;2338541;57;35995;-78
2022/06/26 04:56:44;;;;;;;12.13;10.90;;;22.20;77.90;;;;;;2351196;57;21038;-78
2022/06/26 04:59:11;;;;;;;12.45;11.15;;;22.30;77.10;;;;;;2350902;57;21054;-77
2022/06/26 05:01:39;;;;;;;10.57;9.48;;;22.40;76.40;;;;;;2350226;57;21034;-77
2022/06/26 05:04:06;;;;;;;13.85;10.15;;;22.50;75.90;;;;;;2349879;57;21109;-78
2022/06/26 05:06:34;;;;;;;11.80;9.50;;;22.50;75.80;;;;;;2347805;57;21026;-77
2022/06/26 05:09:01;;;;;;;11.77;10.35;;;22.50;75.50;;;;;;2349801;57;21102;-77
2022/06/26 05:11:29;;;;;;;12.45;9.70;;;22.60;75.40;;;;;;2350010;57;21114;-78
2022/06/26 05:13:56;;;;;;;13.38;11.65;;;22.60;75.40;;;;;;2350570;57;21049;-78
2022/06/26 05:16:24;;;;;;;12.07;9.48;;;22.60;75.40;;;;;;2349229;57;21031;-78
2022/06/26 05:18:51;;;;;;;11.40;10.00;;;22.60;75.40;;;;;;2350968;57;21069;-77
2022/06/26 05:21:19;;;;;;;11.40;9.93;;;22.60;75.40;;;;;;2350023;57;21129;-78
2022/06/26 05:23:46;;;;;;;11.05;9.75;;;22.70;75.20;;;;;;2350189;57;21077;-78
2022/06/26 05:26:14;;;;;;;9.98;8.95;;;22.70;75.10;;;;;;2349352;57;21030;-77
2022/06/26 05:28:41;;;;;;;12.37;9.23;;;22.80;75.00;;;;;;2350186;57;21089;-77
2022/06/26 05:31:09;;;;;;;9.57;8.57;;;22.70;74.60;;;;;;2349209;57;22203;-78
2022/06/26 05:33:37;;;;;;;9.75;8.75;;;22.80;74.70;;;;;;2348960;57;21029;-78
2022/06/26 05:36:07;;;;;;;10.45;9.45;;;22.80;75.50;;;;;;2349205;57;21046;-77
2022/06/26 05:38:36;;;;;;;10.27;9.25;;;22.80;74.60;;;;;;2350474;57;21333;-78
2022/06/26 05:41:03;;;;;;;9.52;8.40;;;22.80;74.40;;;;;;2350030;57;21062;-78
2022/06/26 05:43:31;;;;;;;11.70;8.95;;;22.90;74.40;;;;;;2350186;57;21751;-78
2022/06/26 05:45:59;;;;;;;9.57;8.43;;;22.90;74.20;;;;;;2349821;57;21042;-78
2022/06/26 05:51:02;;;;;;;9.95;9.05;;;22.90;73.50;;;;;;2313255;57;27892;-78
2022/06/26 05:53:29;;;;;;;10.07;8.45;;;22.80;75.40;;;;;;2351215;57;21041;-78
2022/06/26 05:55:57;;;;;;;9.20;8.15;;;22.90;75.10;;;;;;2349546;57;21117;-78
2022/06/26 05:58:24;;;;;;;10.80;8.57;;;23.00;74.80;;;;;;2352105;57;21069;-78
2022/06/26 06:00:52;;;;;;;10.82;8.73;;;23.10;73.90;;;;;;2324423;58;21055;-78
2022/06/26 06:03:19;;;;;;;8.88;8.00;;;23.10;73.50;;;;;;2324840;58;21187;-77
2022/06/26 06:05:47;;;;;;;11.68;9.23;;;23.10;73.60;;;;;;2324031;58;21139;-78
2022/06/26 06:08:14;;;;;;;9.88;8.27;;;23.10;73.30;;;;;;2324289;58;21036;-78
2022/06/26 06:10:42;;;;;;;11.80;8.45;;;23.20;73.60;;;;;;2322428;58;21067;-77
2022/06/26 06:13:11;;;;;;;12.37;7.95;;;23.20;73.40;;;;;;2324392;58;21048;-78
2022/06/26 06:15:38;;;;;;;9.45;8.55;;;23.20;73.30;;;;;;2323416;58;21075;-78
2022/06/26 06:18:06;;;;;;;8.13;7.32;;;23.30;73.30;;;;;;2324659;58;21068;-78
2022/06/26 06:20:34;;;;;;;10.95;8.70;;;23.40;73.30;;;;;;2323003;58;21115;-78
2022/06/26 06:23:04;;;;;;;11.20;8.82;;;23.50;73.70;;;;;;2323369;58;21107;-78
2022/06/26 06:25:33;;;;;;;9.93;8.32;;;23.50;73.70;;;;;;2322486;58;21112;-78
2022/06/26 06:28:01;;;;;;;9.40;8.05;;;23.60;73.90;;;;;;2323556;58;21075;-77
2022/06/26 06:30:28;;;;;;;8.65;7.70;;;23.70;73.20;;;;;;2324672;58;21091;-78
2022/06/26 06:32:56;;;;;;;9.13;8.23;;;23.80;73.70;;;;;;2324128;58;21060;-78
2022/06/26 06:35:23;;;;;;;8.45;7.50;;;23.90;73.40;;;;;;2323976;58;21075;-78
2022/06/26 06:37:51;;;;;;;13.45;8.48;;;24.00;73.10;;;;;;2566423;54;21031;-78
2022/06/26 06:40:19;;;;;;;8.70;7.28;;;24.00;72.50;;;;;;2323809;58;21044;-78
2022/06/26 06:42:47;;;;;;;9.57;7.93;;;24.10;72.70;;;;;;2323120;58;21072;-77
2022/06/26 06:45:14;;;;;;;8.80;7.75;;;24.20;72.70;;;;;;2324092;58;21098;-77
2022/06/26 06:47:42;;;;;;;10.18;8.02;;;24.20;72.30;;;;;;2324582;58;21115;-79
2022/06/26 06:50:10;;;;;;;8.35;7.50;;;24.30;71.70;;;;;;2324008;58;21056;-78
2022/06/26 06:52:37;;;;;;;9.75;7.22;;;24.40;71.10;;;;;;2323948;58;21096;-78
2022/06/26 06:55:07;;;;;;;9.10;7.78;;;24.40;70.80;;;;;;2323017;58;21060;-78
2022/06/26 06:57:34;;;;;;;8.70;7.20;;;24.50;71.00;;;;;;2322872;58;21095;-78
2022/06/26 07:00:06;;;;;;;8.18;7.37;;;24.50;70.50;;;;;;2321742;58;21041;-78
2022/06/26 07:02:36;;;;;;;7.40;6.70;;;24.60;70.10;;;;;;2562362;54;21811;-78
2022/06/26 07:05:05;;;;;;;8.13;7.32;;;24.60;69.90;;;;;;2563924;53;21092;-78
2022/06/26 07:07:32;;;;;;;8.10;7.30;;;24.60;69.80;;;;;;2322359;58;21127;-78
2022/06/26 07:09:59;;;;;;;7.55;6.75;;;24.70;69.60;;;;;;2322230;58;21100;-78
2022/06/26 07:12:27;;;;;;;7.97;7.18;;;24.70;69.50;;;;;;2323193;58;21032;-78
2022/06/26 07:14:55;;;;;;;8.25;7.22;;;24.70;69.30;;;;;;2322210;58;21072;-78
2022/06/26 07:17:23;;;;;;;8.15;7.35;;;24.80;69.20;;;;;;2322454;58;21095;-78
2022/06/26 07:19:50;;;;;;;8.07;7.03;;;24.70;69.20;;;;;;2322272;58;21064;-78
2022/06/26 07:22:18;;;;;;;9.60;7.70;;;24.80;69.30;;;;;;2322782;58;21140;-77
2022/06/26 07:24:45;;;;;;;8.88;7.12;;;24.80;69.30;;;;;;2323173;58;21072;-77
2022/06/26 07:27:14;;;;;;;9.05;7.03;;;24.80;69.10;;;;;;2322993;58;21092;-78
2022/06/26 07:29:43;;;;;;;7.60;6.95;;;24.80;69.00;;;;;;2321699;58;21064;-77
2022/06/26 07:32:11;;;;;;;7.57;6.78;;;24.80;69.00;;;;;;2321576;58;21123;-78
2022/06/26 07:34:38;;;;;;;8.00;7.20;;;24.80;69.60;;;;;;2323174;58;21697;-78
2022/06/26 07:37:06;;;;;;;7.55;6.62;;;24.90;68.50;;;;;;2321445;58;21052;-78
2022/06/26 07:39:33;;;;;;;6.57;5.82;;;24.90;68.20;;;;;;2321340;58;21048;-77
2022/06/26 07:42:01;;;;;;;7.12;6.43;;;24.90;68.00;;;;;;2321160;58;21040;-78
2022/06/26 07:44:29;;;;;;;7.30;6.22;;;24.90;67.90;;;;;;2322650;58;21139;-78
2022/06/26 07:46:57;;;;;;;5.45;5.00;;;25.00;67.80;;;;;;2562104;54;21107;-77
2022/06/26 07:49:24;;;;;;;5.55;5.05;;;24.90;66.30;;;;;;2321227;58;21131;-78
2022/06/26 07:51:52;;;;;;;5.10;4.60;;;25.00;66.10;;;;;;2321684;58;21534;-78
2022/06/26 07:54:19;;;;;;;7.07;4.82;;;25.00;65.70;;;;;;2320874;58;21120;-78
2022/06/26 07:56:50;;;;;;;6.43;4.62;;;25.00;63.90;;;;;;2320025;58;21200;-78
2022/06/26 07:59:18;;;;;;;6.53;3.78;;;25.00;63.20;;;;;;2320494;58;21060;-78
2022/06/26 08:01:45;;;;;;;7.35;3.83;;;25.10;62.90;;;;;;2320731;58;21116;-77
2022/06/26 08:04:12;;;;;;;7.07;3.80;;;25.10;61.90;;;;;;2319572;58;21156;-78
2022/06/26 08:06:40;;;;;;;4.00;3.60;;;25.20;61.70;;;;;;2319069;58;21594;-77
2022/06/26 08:09:07;;;;;;;3.67;3.37;;;25.10;59.80;;;;;;2319680;58;21120;-77
2022/06/26 08:11:35;;;;;;;4.10;3.58;;;25.20;59.20;;;;;;2321605;58;21191;-77
2022/06/26 08:14:03;;;;;;;5.32;3.50;;;25.20;58.70;;;;;;2319759;58;21103;-77
2022/06/26 08:16:31;;;;;;;3.17;2.83;;;25.20;58.50;;;;;;2318328;58;21060;-77
2022/06/26 08:18:58;;;;;;;7.05;3.37;;;25.20;58.00;;;;;;2319629;58;21115;-77
2022/06/26 08:24:11;;;;;;;5.15;3.47;;;25.30;57.90;;;;;;2318816;58;21092;-77
2022/06/26 08:26:39;;;;;;;4.85;3.08;;;25.40;57.70;;;;;;2319356;58;21135;-77
2022/06/26 08:29:06;;;;;;;4.55;3.20;;;25.40;57.50;;;;;;2320146;58;21064;-76
2022/06/26 08:31:34;;;;;;;4.25;3.17;;;25.50;57.70;;;;;;2318340;58;21140;-77
2022/06/26 08:34:01;;;;;;;4.90;3.33;;;25.50;57.90;;;;;;2318980;58;21594;-77
2022/06/26 08:36:29;;;;;;;3.97;3.60;;;25.60;57.60;;;;;;2319105;58;21549;-77
2022/06/26 08:38:56;;;;;;;3.53;3.12;;;25.70;57.40;;;;;;2559801;54;21040;-78
2022/06/26 08:41:28;;;;;;;5.32;3.50;;;25.70;56.10;;;;;;2319874;58;21048;-77
2022/06/26 08:43:59;;;;;;;4.65;3.08;;;25.80;56.00;;;;;;2319313;58;21056;-77
2022/06/26 08:46:29;;;;;;;3.47;3.17;;;25.80;55.60;;;;;;2319812;58;21561;-77
2022/06/26 08:49:01;;;;;;;3.53;3.22;;;25.90;55.80;;;;;;2316664;58;21095;-77
2022/06/26 08:51:29;;;;;;;4.45;2.80;;;26.00;54.70;;;;;;2319283;58;21020;-77
2022/06/26 08:53:58;;;;;;;4.30;2.85;;;26.10;53.90;;;;;;2320248;58;21056;-77
2022/06/26 08:56:25;;;;;;;3.42;2.85;;;26.10;53.00;;;;;;2318620;58;21039;-78
2022/06/26 08:58:54;;;;;;;3.25;2.95;;;26.10;52.80;;;;;;2319076;58;21036;-77
2022/06/26 09:01:22;;;;;;;3.47;3.17;;;26.20;53.00;;;;;;2319468;58;21131;-77
2022/06/26 09:03:49;;;;;;;2.75;2.55;;;26.20;52.70;;;;;;2317344;58;21539;-78
2022/06/26 09:06:17;;;;;;;4.45;3.20;;;26.20;52.10;;;;;;2317088;58;21112;-77
2022/06/26 09:08:45;;;;;;;3.17;2.90;;;26.30;52.30;;;;;;2319317;58;21039;-78
2022/06/26 09:11:13;;;;;;;2.87;2.58;;;26.30;52.60;;;;;;2319054;58;21115;-77
2022/06/26 09:13:41;;;;;;;3.90;2.95;;;26.30;52.60;;;;;;2318920;58;21092;-78
2022/06/26 09:16:10;;;;;;;3.90;3.50;;;26.30;52.90;;;;;;2319106;58;21071;-77
2022/06/26 09:18:39;;;;;;;6.28;3.50;;;26.40;53.30;;;;;;2319096;58;21542;-77
2022/06/26 09:21:08;;;;;;;4.43;3.80;;;26.50;53.30;;;;;;2317250;58;21072;-78
2022/06/26 09:23:39;;;;;;;4.15;3.50;;;26.50;53.40;;;;;;2318348;58;21414;-78
2022/06/26 09:26:06;;;;;;;4.47;3.72;;;26.70;53.50;;;;;;2317746;58;21135;-77
2022/06/26 09:28:34;;;;;;;4.22;3.20;;;26.70;53.10;;;;;;2316832;58;21582;-79
2022/06/26 09:31:04;;;;;;;3.62;3.30;;;26.90;53.50;;;;;;2318208;58;21064;-78
2022/06/26 09:33:33;;;;;;;4.68;3.45;;;27.00;52.90;;;;;;2318316;58;21068;-78
2022/06/26 09:36:04;;;;;;;4.82;3.97;;;27.00;52.70;;;;;;2318077;58;21028;-79
2022/06/26 09:38:34;;;;;;;7.90;3.67;;;27.20;52.70;;;;;;2320074;58;21067;-78
2022/06/26 09:41:03;;;;;;;3.92;3.62;;;27.30;52.20;;;;;;2317350;58;21135;-77
2022/06/26 09:43:33;;;;;;;3.83;3.47;;;27.40;52.30;;;;;;2317952;58;21052;-76
2022/06/26 09:46:04;;;;;;;5.03;3.40;;;27.50;51.70;;;;;;2316528;58;21103;-78
2022/06/26 09:48:32;;;;;;;3.78;3.47;;;27.60;51.50;;;;;;2559421;54;21036;-78
2022/06/26 09:51:02;;;;;;;3.58;2.62;;;27.80;51.70;;;;;;2307821;58;21145;-78
2022/06/26 09:53:32;;;;;;;3.53;2.50;;;27.80;49.80;;;;;;2307454;58;21550;-78
2022/06/26 09:56:00;;;;;;;2.10;1.90;;;27.90;49.00;;;;;;2319124;58;21569;-78
2022/06/26 09:58:29;;;;;;;2.75;1.90;;;27.90;47.90;;;;;;2320511;58;21060;-77
2022/06/26 10:06:32;;;;;;;1.70;1.60;;;28.00;48.20;;;;;;2316069;58;21994;-77
2022/06/26 10:09:01;;;;;;;4.95;1.87;;;28.00;47.70;;;;;;2297408;57;21050;-74
2022/06/26 10:11:31;;;;;;;2.37;2.17;;;28.00;47.50;;;;;;2333063;55;21058;-75
2022/06/26 10:14:01;;;;;;;2.15;1.85;;;28.10;47.40;;;;;;2419355;55;21715;-77
2022/06/26 10:19:43;;;;;;;2.12;1.83;;;28.20;47.30;;;;;;2480848;53;22184;-76
2022/06/26 10:22:12;;;;;;;2.17;1.92;;;28.30;47.00;;;;;;2372998;52;21062;-75
2022/06/26 10:24:50;;;;;;;2.10;1.90;;;28.30;47.10;;;;;;2373227;56;22202;-75
2022/06/26 10:27:24;;;;;;;2.42;1.83;;;28.30;46.90;;;;;;2373439;56;21548;-77
2022/06/26 10:30:05;;;;;;;2.40;1.90;;;28.40;46.70;;;;;;2373009;56;21536;-76
2022/06/26 10:32:33;;;;;;;2.15;1.95;;;28.40;46.60;;;;;;2372824;56;21050;-76
2022/06/26 10:35:00;;;;;;;2.53;2.05;;;28.50;46.20;;;;;;2370134;56;21126;-77
2022/06/26 10:37:38;;;;;;;1.95;1.80;;;28.50;46.50;;;;;;2372979;52;21166;-76
2022/06/26 10:40:13;;;;;;;2.85;1.80;;;28.50;46.30;;;;;;2372355;56;21686;-76
2022/06/26 10:42:54;;;;;;;2.20;2.00;;;28.50;46.30;;;;;;2372723;56;21047;-77
2022/06/26 10:45:28;;;;;;;2.10;1.90;;;28.50;46.40;;;;;;2370465;56;21043;-77
2022/06/26 10:47:55;;;;;;;;;;;28.50;46.10;;;;;;2376415;56;21122;-76
2022/06/26 10:50:31;;;;;;;3.12;2.05;;;28.50;46.40;;;;;;2372664;56;20411;-77
2022/06/26 10:53:20;;;;;;;2.37;1.98;;;28.60;46.50;;;;;;2372376;56;21056;-76
2022/06/26 10:55:50;;;;;;;2.35;1.95;;;28.70;46.20;;;;;;2371509;56;21113;-76
2022/06/26 10:58:21;;;;;;;3.33;2.15;;;28.80;46.20;;;;;;2415888;52;21137;-79
2022/06/26 11:00:50;;;;;;;2.65;2.20;;;28.80;46.30;;;;;;2372679;56;21110;-77
2022/06/26 11:03:19;;;;;;;3.30;2.60;;;28.90;47.10;;;;;;2388669;52;21154;-79
2022/06/26 11:05:57;;;;;;;3.95;2.67;;;28.90;47.40;;;;;;2372731;56;21113;-78
2022/06/26 11:08:27;;;;;;;3.22;2.75;;;28.90;47.70;;;;;;2372320;56;21062;-77
2022/06/26 11:11:00;;;;;;;6.75;3.08;;;28.90;47.40;;;;;;2459911;52;21046;-79
2022/06/26 11:13:27;;;;;;;7.28;3.30;;;29.10;48.10;;;;;;2371466;56;21173;-76
2022/06/26 11:15:55;;;;;;;3.53;2.85;;;29.10;47.10;;;;;;2402827;52;21054;-77
2022/06/26 11:18:22;;;;;;;3.92;2.30;;;29.20;46.30;;;;;;2372034;56;21055;-77
2022/06/26 11:20:54;;;;;;;3.17;2.80;;;29.20;45.80;;;;;;2371779;56;21123;-77
2022/06/26 11:23:24;;;;;;;3.25;2.70;;;29.30;45.80;;;;;;2371671;56;21030;-77
2022/06/26 11:25:55;;;;;;;5.43;2.50;;;29.40;45.70;;;;;;2387227;52;21114;-78
2022/06/26 11:28:29;;;;;;;2.90;2.40;;;29.50;45.90;;;;;;2379575;52;21059;-77
2022/06/26 11:30:58;;;;;;;5.18;2.28;;;29.60;45.10;;;;;;2372065;56;21113;-78
2022/06/26 11:33:27;;;;;;;3.35;2.30;;;29.70;44.20;;;;;;2370775;56;21046;-76
2022/06/26 11:35:55;;;;;;;4.85;2.40;;;29.80;45.10;;;;;;2370495;56;21643;-77
2022/06/26 11:38:23;;;;;;;3.33;2.50;;;29.90;44.60;;;;;;2371177;56;21777;-76
2022/06/26 11:40:51;;;;;;;2.45;2.10;;;30.00;44.70;;;;;;2371830;56;21055;-77
2022/06/26 11:43:20;;;;;;;2.78;2.35;;;30.10;44.70;;;;;;2371293;56;21193;-76
2022/06/26 11:45:47;;;;;;;2.78;2.17;;;30.20;44.50;;;;;;2371540;56;21114;-77
2022/06/26 11:48:17;;;;;;;3.60;2.78;;;30.30;44.40;;;;;;2371367;56;21075;-78
2022/06/26 11:50:46;;;;;;;2.70;2.50;;;30.50;43.30;;;;;;2368921;56;21653;-78
2022/06/26 11:53:21;;;;;;;3.53;3.00;;;30.60;45.00;;;;;;2372494;56;21271;-78
2022/06/26 11:55:50;;;;;;;3.33;2.90;;;30.60;45.70;;;;;;2371154;56;22202;-78
2022/06/26 11:58:21;;;;;;;4.35;2.40;;;30.70;45.40;;;;;;2369330;52;21115;-78
2022/06/26 12:00:48;;;;;;;3.95;3.17;;;30.80;45.40;;;;;;2376981;52;21149;-78
2022/06/26 12:03:18;;;;;;;3.92;2.80;;;30.80;45.80;;;;;;2371283;56;21133;-79
2022/06/26 12:05:46;;;;;;;4.37;3.15;;;30.90;45.70;;;;;;2370382;56;21078;-78
2022/06/26 12:08:19;;;;;;;6.90;3.22;;;31.00;46.50;;;;;;2376164;52;21047;-79
2022/06/26 12:10:50;;;;;;;3.60;3.03;;;31.10;45.50;;;;;;2387051;52;21835;-80
2022/06/26 12:13:26;;;;;;;6.22;3.00;;;31.20;45.60;;;;;;2374038;56;21070;-79
2022/06/26 12:16:00;;;;;;;4.28;3.47;;;31.30;45.40;;;;;;2373982;56;21134;-80
2022/06/26 12:18:28;;;;;;;4.87;3.58;;;31.30;43.90;;;;;;2374183;56;21062;-79
2022/06/26 12:20:55;;;;;;;3.90;2.95;;;31.40;44.30;;;;;;2375478;56;21110;-81
2022/06/26 12:23:33;;;;;;;4.60;3.67;;;31.40;44.50;;;;;;2395293;52;21152;-78
2022/06/26 12:26:09;;;;;;;5.03;3.28;;;31.40;44.30;;;;;;2371938;56;21055;-78
2022/06/26 12:28:45;;;;;;;3.20;2.90;;;31.40;44.60;;;;;;2373285;56;21035;-78
2022/06/26 12:31:13;;;;;;;3.40;3.03;;;31.40;44.60;;;;;;2406977;52;21375;-78
2022/06/26 12:33:41;;;;;;;3.55;3.25;;;31.40;44.80;;;;;;2373004;56;21173;-78
2022/06/26 12:36:10;;;;;;;5.15;3.33;;;31.30;44.90;;;;;;2373078;56;21727;-78
2022/06/26 12:38:39;;;;;;;3.95;3.55;;;31.20;44.80;;;;;;2384485;52;21781;-78
2022/06/26 12:41:16;;;;;;;4.87;3.65;;;31.20;45.00;;;;;;2371084;56;21597;-77
2022/06/26 12:43:45;;;;;;;5.05;3.67;;;31.20;45.20;;;;;;2455741;52;21153;-79
2022/06/26 12:46:13;;;;;;;4.25;3.17;;;31.20;45.10;;;;;;2374032;56;21039;-78
2022/06/26 12:48:41;;;;;;;3.85;3.42;;;31.20;45.00;;;;;;2371928;56;21078;-78
2022/06/26 12:51:10;;;;;;;3.53;3.22;;;31.30;44.50;;;;;;2373128;56;21055;-79
2022/06/26 12:53:39;;;;;;;4.62;3.60;;;31.30;45.30;;;;;;2381799;52;21062;-77
2022/06/26 12:56:08;;;;;;;5.35;3.90;;;31.30;46.10;;;;;;2373587;56;21109;-78
2022/06/26 12:58:36;;;;;;;4.22;3.78;;;31.20;46.40;;;;;;2373362;56;21573;-78
2022/06/26 13:01:06;;;;;;;3.58;3.28;;;31.10;46.10;;;;;;2373082;56;21331;-79
2022/06/26 13:03:33;;;;;;;4.62;4.07;;;31.00;46.20;;;;;;2368688;56;21186;-78
2022/06/26 13:06:01;;;;;;;3.15;2.85;;;31.00;46.30;;;;;;2408249;52;21537;-77
2022/06/26 13:08:30;;;;;;;6.35;3.50;;;30.90;47.40;;;;;;2372220;56;21118;-77
2022/06/26 13:16:22;;;;;;;3.55;2.78;;;31.00;47.30;;;;;;2338050;54;22107;-78
2022/06/26 13:18:49;;;;;;;3.20;2.90;;;31.00;46.90;;;;;;2294558;58;21068;-76